Terminal Aerodrome Forecast
Issued by NWS Binghamton, NY

Home | Current Version | Previous Version | Text Only | Print | Product List | Glossary On
Versions: 1 2 3 4 5 6 7 8 9 10 11 12 13 14 15 16
000
FTUS41 KBGM 291130
TAFAVP
TAF
KAVP 291130Z 2912/3012 10004KT 6SM HZ SCT250
     FM291600 22008KT P6SM SCT050 SCT150 PROB30 2922/3002 TSRA
      BKN050CB
     FM300200 VRB03KT P6SM -SHRA BKN050 OVC100=

USA.gov is the U.S. government's official web portal to all federal, state and local government web resources and services.